Terminal Aerodrome Forecast
Issued by NWS

Home | Current Version | Previous Version | Text Only | Print | Product List | Glossary On
Versions: 1 2 3 4 5 6 7 8 9 10 11 12
000
FTUS46 KLOX 241740
TAFVNY
TAF
KVNY 241740Z 2418/2518 VRB03KT P6SM SCT250
     FM242100 15008KT P6SM SCT250
     FM250400 VRB03KT P6SM SCT250
     FM251100 VRB03KT 4SM BR BKN007
     FM251500 VRB03KT P6SM FEW010=

USA.gov is the U.S. government's official web portal to all federal, state and local government web resources and services.